• Join FlightAware (Why Join?)
  • Login
  • US Flag 
04:00AM EDT


 

Airport Tracker/Info


-or-


 

Live Flight TrackerFlight Track Log ✈ SWA374 ✈ 24-Feb-2014 ✈ KPHX - KMSP

Flight Track Log - Related Links

Times and Time Zones

All times are in EST time to prevent confusion due to time zone crossing. See the SWA374 flight status page for this flight to view local times or setup timezone preferences in your user account.

Time Position Orientation Groundspeed Altitude Reporting Facility
EST Latitude Longitude Course Direction KTS MPH feet Rate Location/Type
01:09PM 33.4333 -111.9833 90° East 174 200 2,000  Level Phoenix TRACON
01:10PM 33.4333 -111.9500 90° East 186 214 2,900 2,040 Climbing Phoenix TRACON
01:11PM 33.4333 -111.8667 90° East 249 287 5,300 2,760 Climbing Phoenix TRACON
01:12PM 33.4139 -111.8006 109° East 272 313 8,000 2,700 Climbing Albuquerque Center
01:13PM 33.4211 -111.7058 85° East 299 344 10,600 2,220 Climbing Albuquerque Center
01:14PM 33.4472 -111.6006 73° East 330 380 12,700 2,220 Climbing Albuquerque Center
01:15PM 33.4769 -111.4831 73° East 366 421 15,200 2,580 Climbing Albuquerque Center
01:16PM 33.5069 -111.3331 76° East 389 448 18,100 2,460 Climbing Albuquerque Center
01:17PM 33.5225 -111.1994 82° East 406 467 20,300 1,980 Climbing Albuquerque Center
01:18PM 33.5364 -111.0611 83° East 418 481 22,300 1,740 Climbing Albuquerque Center
01:19PM 33.5542 -110.9158 82° East 436 502 24,000 1,500 Climbing Albuquerque Center
01:20PM 33.5964 -110.7728 70° East 453 521 25,400 1,380 Climbing Albuquerque Center
01:21PM 33.6428 -110.6261 69° East 467 537 26,900 1,440 Climbing Albuquerque Center
01:22PM 33.7008 -110.4456 69° East 479 551 28,500 1,320 Climbing Albuquerque Center
01:23PM 33.7522 -110.2856 69° East 492 566 29,700 1,020 Climbing Albuquerque Center
01:24PM 33.8019 -110.1256 69° East 505 581 30,700 1,020 Climbing Albuquerque Center
01:25PM 33.8550 -109.9617 69° East 518 596 31,900 1,320 Climbing Albuquerque Center
01:26PM 33.9067 -109.7994 69° East 520 598 33,500 960 Climbing Albuquerque Center
01:27PM 33.9578 -109.6386 69° East 516 594 34,000 360 Climbing Albuquerque Center
01:28PM 34.0072 -109.4800 69° East 509 586 34,300 840 Climbing Albuquerque Center
01:29PM 34.0453 -109.2831 77° East 505 581 35,800 1,140 Climbing Albuquerque Center
01:30PM 34.0703 -109.1186 80° East 501 577 36,700 540 Climbing Albuquerque Center
01:32PM 34.0922 -108.9633 80° East 496 571 37,000 120 Climbing Albuquerque Center
01:33PM 34.1333 -108.7831 75° East 502 578 37,000  Level Albuquerque Center
01:34PM 34.1914 -108.6436 63° Northeast 500 575 37,000  Level Albuquerque Center
01:35PM 34.2531 -108.4986 63° Northeast 493 567 37,000  Level Albuquerque Center
01:36PM 34.3197 -108.3369 63° Northeast 491 565 37,000  Level Albuquerque Center
01:37PM 34.3875 -108.1717 64° Northeast 491 565 37,000  Level Albuquerque Center
01:38PM 34.4456 -108.0306 63° Northeast 491 565 37,000  Level Albuquerque Center
01:39PM 34.5133 -107.8669 63° Northeast 488 562 37,000  Level Albuquerque Center
01:40PM 34.5756 -107.7164 63° Northeast 488 562 37,000  Level Albuquerque Center
01:41PM 34.6375 -107.5614 64° Northeast 487 560 37,000  Level Albuquerque Center
01:42PM 34.6994 -107.4075 64° Northeast 488 562 37,000  Level Albuquerque Center
01:43PM 34.7642 -107.2475 64° Northeast 490 564 37,000  Level Albuquerque Center
01:44PM 34.8228 -107.0997 64° Northeast 486 559 37,000  Level Albuquerque Center
01:45PM 34.8814 -106.9508 64° Northeast 488 562 37,000  Level Albuquerque Center
01:46PM 34.9439 -106.7972 64° Northeast 488 562 37,000 -60 Level Albuquerque Center
01:47PM 35.0028 -106.6494 64° Northeast 486 559 36,900  Descending Albuquerque Center
01:48PM 35.0608 -106.5003 65° Northeast 487 560 37,000  Climbing Albuquerque Center
01:49PM 35.1178 -106.3497 65° Northeast 490 564 36,900  Descending Albuquerque Center
01:50PM 35.1878 -106.1700 64° Northeast 491 565 37,000  Climbing Albuquerque Center
01:51PM 35.2597 -106.0317 57° Northeast 491 565 36,900  Descending Albuquerque Center
01:52PM 35.3506 -105.9117 47° Northeast 487 560 37,000  Climbing Albuquerque Center
01:53PM 35.4367 -105.7931 48° Northeast 478 550 36,900  Descending Albuquerque Center
01:54PM 35.5244 -105.6775 47° Northeast 470 541 37,000  Climbing Albuquerque Center
01:55PM 35.6292 -105.5347 48° Northeast 468 539 37,000  Level Albuquerque Center
01:56PM 35.7161 -105.4150 48° Northeast 465 535 37,000  Level Albuquerque Center
01:57PM 35.8047 -105.2958 47° Northeast 466 536 37,000  Level Albuquerque Center
01:58PM 35.8889 -105.1783 48° Northeast 456 525 37,000  Level Albuquerque Center
01:59PM 35.9756 -105.0589 48° Northeast 459 528 37,000  Level Albuquerque Center
02:00PM 36.0622 -104.9386 48° Northeast 462 532 37,000  Level Albuquerque Center
02:02PM 36.1486 -104.8203 48° Northeast 459 528 37,000  Level Albuquerque Center
02:03PM 36.2356 -104.7000 48° Northeast 461 531 37,000  Level Albuquerque Center
02:04PM 36.3392 -104.5542 49° Northeast 474 545 37,000  Level Albuquerque Center
02:05PM 36.4272 -104.4300 49° Northeast 474 545 37,000  Level Albuquerque Center
02:06PM 36.5136 -104.3083 49° Northeast 468 539 37,000  Level Albuquerque Center
02:07PM 36.6011 -104.1872 48° Northeast 466 536 37,000  Level Albuquerque Center
02:08PM 36.6892 -104.0653 48° Northeast 470 541 37,000  Level Albuquerque Center
02:09PM 36.7836 -103.9297 49° Northeast 467 537 37,000  Level Albuquerque Center
02:10PM 36.8661 -103.8119 49° Northeast 470 541 37,000  Level Albuquerque Center
02:11PM 36.9622 -103.6750 49° Northeast 471 542 37,000  Level Albuquerque Center
02:12PM 37.0439 -103.5572 49° Northeast 471 542 37,000  Level Albuquerque Center
02:13PM 37.1386 -103.4164 50° Northeast 475 547 37,000  Level Albuquerque Center
02:14PM 37.2197 -103.2994 49° Northeast 470 541 37,000  Level Albuquerque Center
02:15PM 37.3122 -103.1678 49° Northeast 455 524 37,000  Level Albuquerque Center
02:16PM 37.3897 -103.0531 50° Northeast 452 520 37,000  Level Albuquerque Center
02:17PM 37.4283 -102.9944 50° Northeast 454 522 37,000  Level Denver Center
02:18PM 37.5194 -102.8592 50° Northeast 454 522 37,000  Level Denver Center
02:19PM 37.5983 -102.7431 49° Northeast 456 525 37,000  Level Denver Center
02:20PM 37.6922 -102.6056 49° Northeast 462 532 37,000  Level Denver Center
02:21PM 37.7722 -102.4858 50° Northeast 464 534 37,000  Level Denver Center
02:22PM 37.8542 -102.3611 50° Northeast 464 534 37,000  Level Denver Center
02:23PM 37.9475 -102.2228 49° Northeast 462 532 37,000  Level Denver Center
02:24PM 38.0256 -102.1042 50° Northeast 458 527 37,000  Level Denver Center
02:25PM 38.1175 -101.9656 50° Northeast 458 527 37,000  Level Denver Center
02:26PM 38.1967 -101.8464 50° Northeast 459 528 37,000  Level Denver Center
02:27PM 38.2897 -101.7039 50° Northeast 466 536 37,000  Level Denver Center
02:28PM 38.3703 -101.5817 50° Northeast 469 540 37,000  Level Denver Center
02:29PM 38.4503 -101.4586 50° Northeast 469 540 37,000  Level Denver Center
02:30PM 38.5436 -101.3139 50° Northeast 471 542 37,000  Level Denver Center
02:31PM 38.6247 -101.1886 50° Northeast 475 547 37,000  Level Denver Center
02:32PM 38.7189 -101.0422 50° Northeast 476 548 37,000  Level Denver Center
02:33PM 38.8003 -100.9139 51° Northeast 481 554 37,000  Level Denver Center
02:34PM 38.8953 -100.7689 50° Northeast 477 549 37,000  Level Denver Center
02:35PM 38.9758 -100.6383 52° Northeast 484 557 37,000  Level Denver Center
02:36PM 39.0661 -100.4956 51° Northeast 482 555 37,000  Level Denver Center
02:37PM 39.1472 -100.3686 50° Northeast 482 555 37,000  Level Denver Center
02:38PM 39.2422 -100.2169 51° Northeast 485 558 37,000  Level Denver Center
02:39PM 39.3239 -100.0842 51° Northeast 491 565 37,000  Level Denver Center
02:40PM 39.4200 -99.9322 51° Northeast 490 564 37,000  Level Denver Center
02:41PM 39.4942 -99.8094 52° Northeast 495 570 37,000  Level Denver Center
02:42PM 39.5983 -99.6436 51° Northeast 495 570 37,000  Level Denver Center
02:43PM 39.6831 -99.5008 52° Northeast 498 573 37,000  Level Denver Center
02:44PM 39.7711 -99.3600 51° Northeast 502 578 37,000  Level Denver Center
02:45PM 39.8575 -99.2150 52° Northeast 506 582 37,000  Level Denver Center
02:46PM 39.9281 -99.0986 52° Northeast 506 582 37,000  Level Minneapolis Center
02:47PM 40.0172 -98.9522 51° Northeast 512 589 37,000  Level Minneapolis Center
02:48PM 40.1050 -98.8042 52° Northeast 512 589 37,000  Level Minneapolis Center
02:49PM 40.1925 -98.6564 52° Northeast 514 592 37,000  Level Minneapolis Center
02:50PM 40.2983 -98.4797 52° Northeast 514 592 37,000  Level Minneapolis Center
02:51PM 40.3867 -98.3306 52° Northeast 515 593 37,000  Level Minneapolis Center
02:52PM 40.4786 -98.1897 49° Northeast 515 593 37,000  Level Minneapolis Center
02:53PM 40.5714 -98.0483 49° Northeast 515 593 37,000  Level Minneapolis Center
02:54PM 40.6631 -97.9050 50° Northeast 515 593 37,000  Level Minneapolis Center
02:55PM 40.7544 -97.7617 50° Northeast 515 593 37,000  Level Minneapolis Center
02:56PM 40.8481 -97.6189 49° Northeast 515 593 37,000  Level Minneapolis Center
02:57PM 40.9600 -97.4419 50° Northeast 519 597 37,000  Level Minneapolis Center
02:59PM 41.0411 -97.3147 50° Northeast 521 600 37,000  Level Minneapolis Center
03:00PM 41.1542 -97.1361 50° Northeast 523 602 37,000  Level Minneapolis Center
03:01PM 41.2483 -96.9850 50° Northeast 524 603 37,000  Level Minneapolis Center
03:02PM 41.3422 -96.8344 50° Northeast 525 604 37,000  Level Minneapolis Center
03:03PM 41.4361 -96.6853 50° Northeast 525 604 37,000 -420 Level Minneapolis Center
03:04PM 41.5300 -96.5331 50° Northeast 525 604 36,200 -840 Descending Minneapolis Center
03:05PM 41.6242 -96.3814 50° Northeast 525 604 35,300 -600 Descending Minneapolis Center
03:06PM 41.7136 -96.2356 51° Northeast 504 580 35,000 -180 Descending Minneapolis Center
03:07PM 41.8022 -96.0900 51° Northeast 503 579 35,000  Level Minneapolis Center
03:08PM 41.8925 -95.9428 50° Northeast 503 579 35,000  Level Minneapolis Center
03:09PM 41.9817 -95.7939 51° Northeast 509 586 35,000  Level Minneapolis Center
03:10PM 42.0703 -95.6453 51° Northeast 508 585 35,000 -300 Level Minneapolis Center
03:11PM 42.1592 -95.4972 51° Northeast 508 585 34,500 -840 Descending Minneapolis Center
03:12PM 42.2633 -95.3242 51° Northeast 498 573 33,300 -780 Descending Minneapolis Center
03:13PM 42.3517 -95.1767 51° Northeast 500 575 33,000 -180 Descending Minneapolis Center
03:14PM 42.4381 -95.0256 52° Northeast 502 578 33,000  Level Minneapolis Center
03:15PM 42.5272 -94.8747 51° Northeast 510 587 33,000  Level Minneapolis Center
03:16PM 42.6169 -94.7225 51° Northeast 512 589 33,000  Level Minneapolis Center
03:17PM 42.6975 -94.5803 52° Northeast 507 583 33,000  Level Minneapolis Center
03:18PM 42.8003 -94.4039 52° Northeast 500 575 33,000  Level Minneapolis Center
03:19PM 42.8867 -94.2547 52° Northeast 500 575 33,000  Level Minneapolis Center
03:20PM 42.9708 -94.1056 52° Northeast 500 575 33,000  Level Minneapolis Center
03:21PM 43.0561 -93.9556 52° Northeast 500 575 33,000 -180 Level Minneapolis Center
03:22PM 43.1617 -93.8556 35° Northeast 466 536 32,700 -1,500 Descending Minneapolis Center
03:23PM 43.2778 -93.8158 14° North 437 503 30,000 -2,340 Descending Minneapolis Center
03:24PM 43.3947 -93.7722 15° North 437 503 28,000 -2,400 Descending Minneapolis Center
03:25PM 43.5122 -93.7292 15° North 437 503 25,100 -2,880 Descending Minneapolis Center
03:26PM 43.6447 -93.6817 15° North 433 498 22,200 -2,580 Descending Minneapolis Center
03:27PM 43.7544 -93.6397 15° North 414 476 19,900 -2,100 Descending Minneapolis Center
03:28PM 43.8603 -93.6008 15° North 400 460 17,900 -2,220 Descending Minneapolis Center
03:29PM 43.9628 -93.5631 15° North 389 448 15,400 -2,400 Descending Minneapolis Center
03:30PM 44.0650 -93.5250 15° North 382 440 13,000 -1,920 Descending Minneapolis Center
03:31PM 44.1622 -93.4881 15° North 365 420 11,500 -1,020 Descending Minneapolis Center
03:32PM 44.2464 -93.4547 16° North 316 364 11,000 -840 Descending Minneapolis Center
03:33PM 44.3306 -93.4064 22° Northeast 274 315 9,900 -1,080 Descending Minneapolis Center
03:34PM 44.4000 -93.3675 22° Northeast 269 310 8,800 -1,020 Descending Minneapolis Center
03:35PM 44.4692 -93.3281 22° Northeast 270 311 7,900 -1,080 Descending Minneapolis Center
03:36PM 44.5356 -93.2914 21° North 260 299 6,700 -1,140 Descending Minneapolis Center
03:37PM 44.5994 -93.2558 22° Northeast 253 291 5,600 -960 Descending Minneapolis Center
03:38PM 44.6578 -93.2225 22° Northeast 232 267 4,800 -840 Descending Minneapolis Center
03:39PM 44.7133 -93.1956 19° North 218 251 4,000 -840 Descending Minneapolis Center
03:41PM 44.7672 -93.2108 349° North 176 203 3,100 -900 Descending Minneapolis Center
03:42PM 44.8069 -93.2217 349° North 155 178 2,200 -840 Descending Minneapolis Center
03:43PM 44.8453 -93.2311 350° North 146 168 1,400 -840 Descending Minneapolis Center
03:45PM 44.8667 -93.2167 35° Northeast  Level FlightAware Approximate